createdAt,value
2022-12-03T00:00:28.045Z,26.00
2022-12-03T00:03:16.301Z,26.40
2022-12-03T00:05:48.893Z,27.50
2022-12-03T00:08:17.571Z,33.30
2022-12-03T00:10:45.867Z,27.00
2022-12-03T00:13:14.201Z,25.40
2022-12-03T00:15:42.384Z,25.10
2022-12-03T00:18:10.708Z,26.70
2022-12-03T00:20:38.794Z,23.80
2022-12-03T00:23:06.783Z,25.30
2022-12-03T00:25:35.054Z,24.60
2022-12-03T00:28:03.171Z,23.00
2022-12-03T00:30:31.319Z,22.20
2022-12-03T00:32:59.347Z,21.60
2022-12-03T00:35:27.566Z,21.50
2022-12-03T00:37:56.069Z,23.70
2022-12-03T00:40:24.125Z,21.30
2022-12-03T00:42:52.287Z,20.30
2022-12-03T00:45:20.315Z,21.10
2022-12-03T00:47:48.362Z,26.50
2022-12-03T00:50:16.736Z,23.10
2022-12-03T00:52:44.942Z,23.80
2022-12-03T00:55:13.008Z,21.60
2022-12-03T00:57:41.024Z,20.20
2022-12-03T01:00:11.067Z,23.50
2022-12-03T01:02:39.814Z,21.30
2022-12-03T01:05:08.603Z,21.40
2022-12-03T01:07:36.872Z,23.80
2022-12-03T01:10:05.667Z,23.80
2022-12-03T01:12:33.770Z,24.20
2022-12-03T01:15:02.149Z,26.60
2022-12-03T01:17:30.139Z,26.40
2022-12-03T01:19:59.163Z,28.40
2022-12-03T01:22:28.023Z,33.00
2022-12-03T01:24:56.134Z,28.90
2022-12-03T01:27:24.305Z,26.10
2022-12-03T01:29:52.512Z,27.50
2022-12-03T01:32:20.601Z,27.00
2022-12-03T01:34:54.233Z,25.20
2022-12-03T01:37:25.776Z,29.20
2022-12-03T01:39:54.434Z,31.30
2022-12-03T01:42:41.749Z,30.50
2022-12-03T01:45:21.407Z,26.00
2022-12-03T01:47:49.627Z,26.90
2022-12-03T01:50:30.399Z,25.50
2022-12-03T01:53:01.655Z,24.60
2022-12-03T01:55:30.072Z,24.20
2022-12-03T01:58:00.951Z,24.10
2022-12-03T02:00:30.295Z,24.40
2022-12-03T02:03:07.773Z,23.90
2022-12-03T02:05:37.101Z,22.60
2022-12-03T02:08:31.299Z,22.80
2022-12-03T02:11:06.634Z,22.20
2022-12-03T02:13:35.327Z,21.20
2022-12-03T02:16:04.538Z,21.60
2022-12-03T02:18:32.749Z,21.80
2022-12-03T02:21:12.369Z,22.10
2022-12-03T02:23:40.409Z,20.40
2022-12-03T02:26:08.530Z,18.40
2022-12-03T02:28:38.262Z,20.60
2022-12-03T02:31:07.332Z,20.00
2022-12-03T02:33:35.676Z,19.90
2022-12-03T02:36:04.353Z,20.10
2022-12-03T02:38:35.214Z,21.40
2022-12-03T02:41:07.500Z,20.10
2022-12-03T02:43:36.053Z,22.00
2022-12-03T02:46:07.575Z,20.70
2022-12-03T02:48:41.011Z,21.80
2022-12-03T02:51:11.067Z,23.00
2022-12-03T02:53:44.582Z,21.00
2022-12-03T02:56:16.588Z,26.60
2022-12-03T02:58:47.115Z,22.00
2022-12-03T03:03:48.888Z,19.20
2022-12-03T03:06:19.730Z,19.80
2022-12-03T03:08:48.504Z,22.40
2022-12-03T03:11:16.750Z,23.50
2022-12-03T03:13:44.917Z,20.80
2022-12-03T03:16:13.143Z,25.30
2022-12-03T03:18:42.028Z,24.40
2022-12-03T03:21:10.429Z,21.30
2022-12-03T03:23:38.678Z,21.00
2022-12-03T03:26:10.002Z,21.00
2022-12-03T03:28:46.152Z,21.50
2022-12-03T03:31:18.269Z,20.70
2022-12-03T03:33:48.550Z,18.90
2022-12-03T03:36:17.135Z,20.10
2022-12-03T03:38:45.355Z,20.60
2022-12-03T03:41:14.609Z,20.20
2022-12-03T03:43:44.468Z,20.50
2022-12-03T03:46:12.912Z,20.90
2022-12-03T03:48:42.648Z,20.40
2022-12-03T03:51:12.325Z,20.10
2022-12-03T03:53:43.214Z,19.80
2022-12-03T03:56:13.447Z,19.90
2022-12-03T03:58:41.611Z,18.80
2022-12-03T04:01:12.628Z,21.20
2022-12-03T04:03:41.201Z,20.50
2022-12-03T04:06:09.974Z,19.70
2022-12-03T04:08:38.087Z,19.20
2022-12-03T04:11:25.375Z,22.00
2022-12-03T04:13:53.528Z,19.30
2022-12-03T04:16:21.675Z,20.90
2022-12-03T04:18:49.776Z,21.10
2022-12-03T04:21:38.734Z,19.80
2022-12-03T04:24:09.031Z,25.60
2022-12-03T04:26:56.041Z,26.60
2022-12-03T04:29:24.312Z,23.30
2022-12-03T04:32:11.115Z,21.00
2022-12-03T04:34:58.253Z,19.60
2022-12-03T04:37:26.330Z,20.00
2022-12-03T04:39:54.651Z,21.20
2022-12-03T04:42:22.971Z,22.00
2022-12-03T04:44:51.101Z,21.50
2022-12-03T04:47:22.008Z,19.90
2022-12-03T04:49:51.665Z,25.60
2022-12-03T04:52:20.861Z,26.50
2022-12-03T04:54:48.979Z,23.50
2022-12-03T04:57:17.384Z,21.60
2022-12-03T04:59:45.473Z,24.60
2022-12-03T05:02:13.540Z,21.90
2022-12-03T05:04:42.236Z,20.70
2022-12-03T05:07:11.818Z,23.60
2022-12-03T05:09:39.923Z,21.90
2022-12-03T05:12:08.134Z,19.60
2022-12-03T05:14:36.650Z,20.70
2022-12-03T05:17:04.787Z,19.70
2022-12-03T05:19:51.579Z,20.70
2022-12-03T05:22:19.630Z,19.50
2022-12-03T05:24:47.742Z,19.50
2022-12-03T05:27:20.207Z,19.10
2022-12-03T05:29:52.597Z,15.80
2022-12-03T05:32:20.886Z,14.70
2022-12-03T05:34:48.963Z,18.20
2022-12-03T05:37:17.082Z,15.60
2022-12-03T05:39:45.150Z,16.50
2022-12-03T05:42:31.952Z,16.50
2022-12-03T05:45:00.222Z,13.70
2022-12-03T05:47:28.307Z,15.40
2022-12-03T05:49:56.352Z,15.40
2022-12-03T05:52:24.385Z,17.30
2022-12-03T05:54:52.782Z,17.10
2022-12-03T05:57:21.174Z,16.20
2022-12-03T05:59:49.372Z,14.70
2022-12-03T06:02:17.433Z,22.90
2022-12-03T06:04:45.781Z,22.50
2022-12-03T06:07:14.409Z,23.80
2022-12-03T06:09:42.737Z,26.90
2022-12-03T06:12:10.738Z,29.70
2022-12-03T06:14:38.839Z,39.60
2022-12-03T06:17:07.379Z,32.90
2022-12-03T06:19:35.679Z,28.70
2022-12-03T06:22:03.988Z,28.20
2022-12-03T06:24:32.308Z,24.70
2022-12-03T06:27:00.303Z,21.90
2022-12-03T06:29:28.493Z,25.50
2022-12-03T06:31:56.546Z,20.80
2022-12-03T06:34:24.634Z,21.90
2022-12-03T06:36:52.661Z,19.60
2022-12-03T06:39:22.693Z,23.30
2022-12-03T06:41:50.858Z,22.90
2022-12-03T06:44:19.088Z,26.40
2022-12-03T06:46:48.125Z,22.70
2022-12-03T06:49:16.395Z,19.90
2022-12-03T06:51:44.484Z,21.50
2022-12-03T06:54:12.533Z,20.30
2022-12-03T06:56:45.068Z,17.80
2022-12-03T06:59:14.060Z,17.60
2022-12-03T07:01:42.999Z,15.60
2022-12-03T07:04:11.567Z,17.10
2022-12-03T07:06:40.312Z,18.40
2022-12-03T07:09:08.877Z,21.10
2022-12-03T07:11:40.726Z,17.90
2022-12-03T07:14:11.686Z,17.20
2022-12-03T07:16:40.308Z,20.10
2022-12-03T07:19:09.670Z,20.40
2022-12-03T07:21:38.169Z,17.20
2022-12-03T07:24:06.786Z,19.00
2022-12-03T07:26:37.254Z,20.30
2022-12-03T07:29:05.612Z,18.20
2022-12-03T07:31:33.721Z,18.70
2022-12-03T07:34:02.364Z,18.90
2022-12-03T07:36:30.686Z,16.90
2022-12-03T07:38:58.793Z,18.70
2022-12-03T07:41:26.961Z,20.00
2022-12-03T07:43:55.196Z,20.60
2022-12-03T07:46:23.368Z,21.80
2022-12-03T07:48:54.524Z,20.80
2022-12-03T07:52:36.036Z,19.70
2022-12-03T07:55:14.730Z,16.00
2022-12-03T07:58:13.621Z,17.10
2022-12-03T08:01:03.897Z,19.00
2022-12-03T08:11:27.598Z,23.20
2022-12-03T08:14:53.397Z,21.00
2022-12-03T08:17:43.288Z,18.00
2022-12-03T08:20:28.395Z,17.30
2022-12-03T08:23:11.972Z,18.40
2022-12-03T08:25:46.571Z,18.60
2022-12-03T08:28:21.827Z,19.20
2022-12-03T08:31:07.513Z,17.20
2022-12-03T08:33:37.168Z,17.00
2022-12-03T08:36:30.689Z,18.20
2022-12-03T08:39:20.427Z,16.10
2022-12-03T08:42:13.918Z,17.40
2022-12-03T08:44:42.651Z,17.80
2022-12-03T08:47:19.774Z,17.50
2022-12-03T08:49:54.368Z,19.20
2022-12-03T08:52:31.000Z,18.50
2022-12-03T08:55:02.951Z,19.90
2022-12-03T08:57:34.657Z,17.80
2022-12-03T09:00:12.798Z,19.60
2022-12-03T09:02:46.324Z,17.80
2022-12-03T09:05:22.729Z,18.70
2022-12-03T09:07:51.018Z,17.90
2022-12-03T09:10:19.187Z,16.40
2022-12-03T09:12:47.995Z,20.20
2022-12-03T09:15:16.256Z,18.70
2022-12-03T09:17:44.578Z,17.60
2022-12-03T09:20:13.183Z,18.90
2022-12-03T09:22:41.672Z,19.00
2022-12-03T09:25:09.966Z,18.70
2022-12-03T09:27:38.098Z,17.80
2022-12-03T09:30:08.645Z,16.40
2022-12-03T09:35:06.340Z,16.40
2022-12-03T09:37:34.813Z,17.80
2022-12-03T09:40:03.935Z,15.80
2022-12-03T09:42:32.061Z,13.80
2022-12-03T09:45:01.881Z,16.10
2022-12-03T09:47:31.570Z,14.80
2022-12-03T09:50:00.468Z,14.80
2022-12-03T09:52:34.039Z,14.30
2022-12-03T09:55:08.029Z,14.00
2022-12-03T09:57:36.791Z,15.10
2022-12-03T10:00:15.875Z,16.50
2022-12-03T10:02:44.089Z,15.30
2022-12-03T10:05:13.476Z,14.00
2022-12-03T10:07:42.904Z,16.40
2022-12-03T10:10:20.905Z,15.20
2022-12-03T10:12:51.075Z,15.90
2022-12-03T10:15:23.093Z,13.90
2022-12-03T10:17:55.106Z,14.20
2022-12-03T10:20:27.156Z,13.20
2022-12-03T10:22:55.211Z,14.20
2022-12-03T10:25:24.296Z,12.00
2022-12-03T10:28:01.417Z,14.30
2022-12-03T10:30:32.052Z,12.80
2022-12-03T10:33:18.995Z,15.00
2022-12-03T10:35:57.780Z,14.50
2022-12-03T10:39:21.664Z,13.30
2022-12-03T10:42:17.661Z,12.40
2022-12-03T10:45:16.818Z,13.20
2022-12-03T10:48:21.106Z,12.50
2022-12-03T10:50:53.289Z,13.20
2022-12-03T10:53:27.823Z,14.20
2022-12-03T10:56:00.732Z,15.50
2022-12-03T10:58:34.344Z,13.90
2022-12-03T11:01:14.903Z,13.30
2022-12-03T11:03:45.748Z,12.70
2022-12-03T11:06:23.206Z,13.40
2022-12-03T11:09:08.297Z,13.80
2022-12-03T11:11:41.501Z,13.40
2022-12-03T11:14:14.743Z,13.90
2022-12-03T11:16:48.338Z,14.20
2022-12-03T11:19:19.630Z,14.30
2022-12-03T11:22:06.612Z,14.30
2022-12-03T11:24:39.596Z,15.20
2022-12-03T11:27:09.286Z,16.00
2022-12-03T11:29:54.569Z,14.00
2022-12-03T11:32:38.544Z,14.20
2022-12-03T11:35:13.449Z,15.50
2022-12-03T11:37:43.827Z,15.80
2022-12-03T11:40:17.328Z,14.80
2022-12-03T11:42:47.585Z,15.00
2022-12-03T11:45:23.402Z,15.20
2022-12-03T11:48:16.179Z,14.90
2022-12-03T11:50:55.377Z,14.40
2022-12-03T11:53:27.350Z,13.90
2022-12-03T11:56:09.265Z,14.90
2022-12-03T11:58:42.638Z,15.40
2022-12-03T12:01:12.490Z,16.60
2022-12-03T12:03:48.426Z,13.50
2022-12-03T12:06:20.201Z,14.60
2022-12-03T12:08:50.023Z,15.10
2022-12-03T12:11:18.195Z,15.90
2022-12-03T12:13:55.512Z,16.30
2022-12-03T12:16:43.031Z,17.40
2022-12-03T12:19:32.800Z,17.40
2022-12-03T12:22:21.068Z,18.00
2022-12-03T12:25:32.684Z,19.50
2022-12-03T12:28:02.329Z,18.40
2022-12-03T12:30:31.026Z,18.00
2022-12-03T12:33:12.422Z,16.30
2022-12-03T12:35:41.067Z,16.50
2022-12-03T12:38:12.073Z,16.70
2022-12-03T12:40:43.020Z,14.40
2022-12-03T12:43:15.277Z,16.90
2022-12-03T12:45:46.044Z,17.70
2022-12-03T12:48:22.254Z,16.10
2022-12-03T12:50:58.932Z,16.30
2022-12-03T12:53:35.048Z,15.10
2022-12-03T12:56:26.633Z,16.30
2022-12-03T12:58:54.850Z,15.90
2022-12-03T13:01:27.298Z,15.80
2022-12-03T13:03:58.451Z,16.90
2022-12-03T13:06:32.318Z,16.60
2022-12-03T13:09:01.827Z,16.30
2022-12-03T13:11:35.631Z,15.30
2022-12-03T13:14:19.649Z,13.80
2022-12-03T13:16:49.786Z,13.80
2022-12-03T13:19:49.391Z,14.90
2022-12-03T13:22:23.108Z,14.00
2022-12-03T13:24:54.418Z,14.00
2022-12-03T13:27:31.964Z,15.40
2022-12-03T13:30:14.267Z,15.80
2022-12-03T13:32:44.159Z,16.00
2022-12-03T13:35:27.082Z,14.60
2022-12-03T13:37:55.787Z,15.30
2022-12-03T13:40:30.830Z,15.30
2022-12-03T13:42:59.507Z,16.80
2022-12-03T13:45:43.780Z,15.60
2022-12-03T13:48:21.366Z,15.70
2022-12-03T13:50:52.724Z,12.50
2022-12-03T13:53:26.617Z,16.10
2022-12-03T13:56:34.173Z,17.00
2022-12-03T13:59:04.538Z,17.60
2022-12-03T14:01:33.279Z,16.20
2022-12-03T14:04:01.688Z,16.50
2022-12-03T14:06:30.035Z,16.90
2022-12-03T14:08:58.989Z,18.30
2022-12-03T14:11:45.877Z,20.50
2022-12-03T14:14:14.602Z,17.70
2022-12-03T14:16:43.201Z,17.20
2022-12-03T14:19:11.251Z,17.80
2022-12-03T14:21:39.508Z,17.80
2022-12-03T14:24:07.791Z,21.60
2022-12-03T14:26:36.143Z,21.30
2022-12-03T14:29:08.752Z,25.50
2022-12-03T14:31:37.342Z,30.60
2022-12-03T14:34:05.834Z,31.40
2022-12-03T14:36:33.960Z,34.80
2022-12-03T14:39:02.891Z,27.30
2022-12-03T14:41:49.403Z,20.10
2022-12-03T14:44:18.805Z,19.70
2022-12-03T14:46:47.531Z,16.30
2022-12-03T14:49:16.044Z,18.60
2022-12-03T14:51:44.231Z,20.60
2022-12-03T14:54:13.910Z,20.80
2022-12-03T14:56:41.950Z,17.60
2022-12-03T14:59:10.857Z,20.70
2022-12-03T15:01:39.068Z,18.10
2022-12-03T15:04:08.012Z,20.30
2022-12-03T15:06:36.088Z,17.60
2022-12-03T15:09:04.937Z,20.10
2022-12-03T15:11:34.755Z,23.50
2022-12-03T15:14:05.381Z,22.50
2022-12-03T15:16:34.859Z,23.20
2022-12-03T15:19:04.925Z,21.20
2022-12-03T15:21:35.133Z,22.60
2022-12-03T15:24:03.756Z,19.80
2022-12-03T15:26:31.784Z,19.60
2022-12-03T15:29:00.380Z,21.90
2022-12-03T15:31:28.951Z,19.30
2022-12-03T15:33:57.622Z,21.30
2022-12-03T15:36:25.755Z,20.60
2022-12-03T15:38:53.887Z,25.70
2022-12-03T15:41:25.742Z,20.30
2022-12-03T15:43:53.977Z,25.00
2022-12-03T15:46:23.878Z,23.10
2022-12-03T15:48:52.906Z,20.30
2022-12-03T15:51:21.204Z,22.10
2022-12-03T15:53:49.881Z,20.70
2022-12-03T15:56:18.023Z,20.40
2022-12-03T15:58:46.245Z,25.10
2022-12-03T16:01:15.373Z,21.30
2022-12-03T16:03:43.653Z,22.00
2022-12-03T16:06:12.725Z,23.30
2022-12-03T16:08:40.765Z,20.00
2022-12-03T16:11:09.412Z,21.80
2022-12-03T16:13:37.479Z,23.00
2022-12-03T16:16:06.780Z,21.90
2022-12-03T16:18:35.220Z,21.20
2022-12-03T16:21:03.383Z,23.00
2022-12-03T16:23:31.456Z,20.00
2022-12-03T16:26:00.893Z,20.00
2022-12-03T16:28:29.428Z,19.60
2022-12-03T16:30:58.209Z,19.50
2022-12-03T16:33:27.971Z,21.40
2022-12-03T16:35:56.350Z,19.80
2022-12-03T16:38:25.343Z,19.10
2022-12-03T16:40:53.440Z,19.60
2022-12-03T16:43:21.626Z,17.10
2022-12-03T16:46:03.153Z,15.00
2022-12-03T16:48:31.738Z,17.50
2022-12-03T16:51:00.698Z,15.00
2022-12-03T16:53:28.664Z,15.90
2022-12-03T16:55:56.836Z,17.70
2022-12-03T16:58:25.345Z,18.00
2022-12-03T17:00:54.441Z,14.90
2022-12-03T17:03:22.972Z,17.40
2022-12-03T17:05:51.052Z,16.60
2022-12-03T17:08:19.334Z,14.30
2022-12-03T17:10:47.832Z,15.90
2022-12-03T17:13:16.087Z,15.20
2022-12-03T17:15:44.395Z,13.40
2022-12-03T17:18:12.630Z,14.50
2022-12-03T17:20:41.860Z,15.20
2022-12-03T17:23:11.975Z,17.30
2022-12-03T17:25:40.090Z,15.80
2022-12-03T17:28:08.247Z,12.80
2022-12-03T17:33:06.603Z,16.60
2022-12-03T17:35:34.897Z,12.70
2022-12-03T17:38:03.028Z,13.60
2022-12-03T17:40:31.535Z,14.10
2022-12-03T17:42:59.653Z,17.20
2022-12-03T17:45:28.681Z,18.50
2022-12-03T17:47:56.904Z,23.10
2022-12-03T17:50:26.255Z,23.70
2022-12-03T17:52:54.356Z,20.00
2022-12-03T17:55:31.954Z,19.60
2022-12-03T17:58:06.713Z,16.00
2022-12-03T18:00:34.880Z,21.00
2022-12-03T18:03:03.213Z,17.40
2022-12-03T18:05:31.233Z,17.30
2022-12-03T18:08:00.193Z,18.90
2022-12-03T18:10:28.880Z,19.60
2022-12-03T18:13:01.687Z,16.80
2022-12-03T18:15:32.297Z,21.00
2022-12-03T18:18:07.703Z,21.10
2022-12-03T18:20:37.817Z,15.80
2022-12-03T18:23:06.046Z,17.20
2022-12-03T18:25:34.267Z,15.20
2022-12-03T18:28:03.135Z,13.80
2022-12-03T18:30:31.791Z,18.40
2022-12-03T18:33:00.570Z,16.50
2022-12-03T18:35:28.835Z,18.90
2022-12-03T18:37:56.963Z,17.20
2022-12-03T18:40:27.430Z,17.30
2022-12-03T18:42:57.592Z,14.80
2022-12-03T18:45:28.426Z,13.20
2022-12-03T18:47:57.352Z,15.10
2022-12-03T18:50:25.352Z,17.30
2022-12-03T18:52:53.556Z,18.10
2022-12-03T18:55:22.016Z,14.20
2022-12-03T18:57:50.529Z,15.50
2022-12-03T19:00:18.816Z,15.80
2022-12-03T19:03:03.020Z,16.70
2022-12-03T19:05:34.197Z,12.90
2022-12-03T19:08:04.004Z,15.60
2022-12-03T19:10:32.144Z,15.40
2022-12-03T19:13:01.021Z,13.90
2022-12-03T19:15:30.774Z,14.10
2022-12-03T19:17:58.804Z,14.00
2022-12-03T19:20:26.936Z,14.00
2022-12-03T19:22:55.127Z,14.00
2022-12-03T19:25:23.292Z,14.20
2022-12-03T19:27:55.175Z,17.60
2022-12-03T19:30:24.276Z,17.90
2022-12-03T19:32:52.435Z,17.80
2022-12-03T19:35:22.688Z,16.10
2022-12-03T19:37:52.002Z,20.10
2022-12-03T19:40:20.088Z,19.10
2022-12-03T19:42:48.200Z,18.20
2022-12-03T19:45:16.424Z,15.00
2022-12-03T19:47:45.781Z,13.90
2022-12-03T19:50:22.682Z,13.10
2022-12-03T19:52:51.346Z,12.90
2022-12-03T19:55:22.312Z,14.00
2022-12-03T19:57:50.491Z,14.00
2022-12-03T20:00:18.875Z,18.50
2022-12-03T20:02:50.021Z,15.70
2022-12-03T20:05:19.681Z,17.30
2022-12-03T20:07:47.903Z,16.80
2022-12-03T20:10:16.184Z,13.20
2022-12-03T20:12:44.867Z,17.00
2022-12-03T20:15:13.659Z,13.20
2022-12-03T20:17:43.617Z,17.50
2022-12-03T20:20:12.004Z,14.10
2022-12-03T20:22:40.137Z,17.10
2022-12-03T20:25:10.186Z,15.20
2022-12-03T20:27:38.376Z,15.10
2022-12-03T20:30:07.766Z,16.50
2022-12-03T20:32:39.402Z,16.40
2022-12-03T20:35:12.359Z,20.90
2022-12-03T20:37:40.701Z,22.40
2022-12-03T20:40:09.649Z,17.70
2022-12-03T20:42:37.937Z,17.00
2022-12-03T20:45:07.412Z,16.30
2022-12-03T20:47:35.660Z,16.80
2022-12-03T20:50:03.945Z,15.00
2022-12-03T20:52:32.118Z,15.90
2022-12-03T20:55:00.392Z,16.80
2022-12-03T20:57:29.590Z,14.40
2022-12-03T20:59:57.906Z,15.50
2022-12-03T21:02:27.222Z,18.40
2022-12-03T21:04:56.008Z,15.70
2022-12-03T21:07:24.089Z,16.60
2022-12-03T21:09:52.503Z,13.40
2022-12-03T21:12:20.817Z,16.90
2022-12-03T21:14:48.954Z,15.90
2022-12-03T21:17:17.206Z,12.60
2022-12-03T21:19:46.309Z,13.50
2022-12-03T21:22:15.163Z,14.00
2022-12-03T21:24:43.906Z,15.50
2022-12-03T21:27:14.574Z,16.10
2022-12-03T21:29:46.691Z,15.80
2022-12-03T21:32:14.757Z,14.90
2022-12-03T21:34:44.753Z,15.00
2022-12-03T21:37:13.660Z,15.90
2022-12-03T21:39:42.142Z,14.40
2022-12-03T21:42:35.009Z,13.70
2022-12-03T21:44:58.871Z,16.40
2022-12-03T21:47:28.922Z,14.50
2022-12-03T21:49:59.025Z,14.70
2022-12-03T21:52:28.072Z,14.80
2022-12-03T21:54:56.185Z,16.00
2022-12-03T21:57:25.020Z,15.40
2022-12-03T21:59:53.709Z,13.10
2022-12-03T22:02:22.464Z,15.50
2022-12-03T22:04:51.419Z,13.00
2022-12-03T22:07:19.698Z,14.50
2022-12-03T22:09:47.805Z,15.10
2022-12-03T22:12:15.912Z,13.60
2022-12-03T22:14:44.069Z,14.20
2022-12-03T22:17:12.193Z,14.00
2022-12-03T22:19:40.476Z,10.10
2022-12-03T22:22:08.639Z,11.40
2022-12-03T22:24:36.805Z,12.70
2022-12-03T22:27:05.095Z,11.40
2022-12-03T22:29:33.214Z,11.20
2022-12-03T22:32:01.420Z,10.10
2022-12-03T22:34:29.526Z,10.20
2022-12-03T22:36:57.591Z,9.10
2022-12-03T22:39:25.649Z,10.30
2022-12-03T22:41:54.047Z,9.50
2022-12-03T22:44:22.165Z,10.60
2022-12-03T22:46:50.320Z,10.10
2022-12-03T22:49:18.619Z,9.30
2022-12-03T22:51:47.549Z,8.90
2022-12-03T22:54:18.277Z,10.50
2022-12-03T22:56:50.498Z,10.00
2022-12-03T22:59:18.584Z,9.60
2022-12-03T23:01:47.821Z,10.30
2022-12-03T23:04:16.311Z,9.80
2022-12-03T23:06:44.475Z,8.30
2022-12-03T23:09:12.786Z,8.90
2022-12-03T23:11:44.854Z,9.10
2022-12-03T23:14:13.232Z,10.20
2022-12-03T23:16:41.330Z,10.90
2022-12-03T23:19:09.359Z,10.50
2022-12-03T23:21:37.731Z,10.50
2022-12-03T23:24:06.595Z,11.10
2022-12-03T23:26:37.692Z,9.60
2022-12-03T23:29:06.563Z,9.60
2022-12-03T23:31:34.870Z,11.00
2022-12-03T23:34:04.135Z,9.30
2022-12-03T23:36:33.770Z,9.30
2022-12-03T23:39:02.142Z,9.90
2022-12-03T23:41:30.281Z,9.00
2022-12-03T23:43:58.786Z,10.30
2022-12-03T23:46:28.177Z,9.40
2022-12-03T23:48:58.859Z,9.70
2022-12-03T23:51:27.736Z,10.20
2022-12-03T23:53:57.024Z,10.60
2022-12-03T23:56:29.197Z,10.40
2022-12-03T23:58:59.023Z,8.90
